createdAt,value
2023-03-13T00:02:18.403Z,4.76
2023-03-13T00:05:34.702Z,4.78
2023-03-13T00:08:51.134Z,4.82
2023-03-13T00:12:07.172Z,4.85
2023-03-13T00:15:23.385Z,4.90
2023-03-13T00:18:40.155Z,4.94
2023-03-13T00:21:56.190Z,4.99
2023-03-13T00:25:13.203Z,5.00
2023-03-13T00:28:30.432Z,5.04
2023-03-13T00:31:47.146Z,5.06
2023-03-13T00:35:05.125Z,5.08
2023-03-13T00:38:21.073Z,5.09
2023-03-13T00:41:39.226Z,5.11
2023-03-13T00:44:55.247Z,5.10
2023-03-13T00:48:12.748Z,5.09
2023-03-13T00:51:31.056Z,5.12
2023-03-13T00:54:47.202Z,5.10
2023-03-13T00:58:03.542Z,5.12
2023-03-13T01:01:22.616Z,5.11
2023-03-13T01:04:38.852Z,5.10
2023-03-13T01:07:54.984Z,5.08
2023-03-13T01:11:13.414Z,5.06
2023-03-13T01:14:30.127Z,5.09
2023-03-13T01:21:03.183Z,5.06
2023-03-13T01:24:20.996Z,5.07
2023-03-13T01:27:37.217Z,5.08
2023-03-13T01:30:53.306Z,5.08
2023-03-13T01:34:11.895Z,5.08
2023-03-13T01:37:30.787Z,5.10
2023-03-13T01:40:52.725Z,5.13
2023-03-13T01:44:09.228Z,5.14
2023-03-13T01:47:26.890Z,5.12
2023-03-13T01:50:55.402Z,5.11
2023-03-13T01:54:21.368Z,5.15
2023-03-13T01:57:42.650Z,5.16
2023-03-13T02:01:00.611Z,5.20
2023-03-13T02:04:17.688Z,5.23
2023-03-13T02:07:38.749Z,5.28
2023-03-13T02:11:02.211Z,5.35
2023-03-13T02:14:20.288Z,5.38
2023-03-13T02:17:37.550Z,5.38
2023-03-13T02:20:54.245Z,5.43
2023-03-13T02:24:15.629Z,5.46
2023-03-13T02:27:32.411Z,5.51
2023-03-13T02:30:50.375Z,5.56
2023-03-13T02:34:09.704Z,5.55
2023-03-13T02:37:27.366Z,5.58
2023-03-13T02:40:48.232Z,5.60
2023-03-13T02:44:04.531Z,5.64
2023-03-13T02:47:24.280Z,5.67
2023-03-13T02:50:41.839Z,5.70
2023-03-13T02:54:01.786Z,5.73
2023-03-13T02:57:19.037Z,5.75
2023-03-13T03:00:35.423Z,5.78
2023-03-13T03:03:51.915Z,5.81
2023-03-13T03:07:08.704Z,5.81
2023-03-13T03:10:26.013Z,5.83
2023-03-13T03:13:42.262Z,5.85
2023-03-13T03:16:58.541Z,5.87
2023-03-13T03:20:17.043Z,5.88
2023-03-13T03:23:33.142Z,5.93
2023-03-13T03:26:49.251Z,5.98
2023-03-13T03:30:07.716Z,6.01
2023-03-13T03:33:24.675Z,6.01
2023-03-13T03:36:40.660Z,6.02
2023-03-13T03:39:56.851Z,6.05
2023-03-13T03:43:13.581Z,6.06
2023-03-13T03:46:30.399Z,6.06
2023-03-13T03:49:46.385Z,6.07
2023-03-13T03:53:03.156Z,6.08
2023-03-13T03:56:19.519Z,6.10
2023-03-13T03:59:37.242Z,6.11
2023-03-13T04:02:54.979Z,6.11
2023-03-13T04:06:12.606Z,6.11
2023-03-13T04:09:31.573Z,6.12
2023-03-13T04:12:48.423Z,6.15
2023-03-13T04:16:04.509Z,6.13
2023-03-13T04:19:20.528Z,6.13
2023-03-13T04:22:37.136Z,6.17
2023-03-13T04:25:53.247Z,6.15
2023-03-13T04:29:09.397Z,6.17
2023-03-13T04:35:59.972Z,6.16
2023-03-13T04:39:17.805Z,6.18
2023-03-13T04:42:47.690Z,6.17
2023-03-13T04:46:11.480Z,6.17
2023-03-13T04:49:45.681Z,6.18
2023-03-13T04:53:21.790Z,6.22
2023-03-13T04:56:55.442Z,6.21
2023-03-13T05:00:19.423Z,6.21
2023-03-13T05:07:11.212Z,6.27
2023-03-13T05:10:29.066Z,6.27
2023-03-13T05:13:50.916Z,6.28
2023-03-13T05:17:26.612Z,6.28
2023-03-13T06:15:44.884Z,6.83
2023-03-13T06:19:03.047Z,6.86
2023-03-13T06:22:19.394Z,6.90
2023-03-13T06:25:35.672Z,6.93
2023-03-13T06:28:51.795Z,6.99
2023-03-13T06:32:08.322Z,7.05
2023-03-13T06:35:24.900Z,7.12
2023-03-13T06:38:41.694Z,7.17
2023-03-13T06:42:02.264Z,7.21
2023-03-13T06:45:20.861Z,7.23
2023-03-13T06:48:36.883Z,7.28
2023-03-13T06:51:53.299Z,7.35
2023-03-13T06:55:09.443Z,7.39
2023-03-13T06:58:32.546Z,7.39
2023-03-13T07:01:43.854Z,7.43
2023-03-13T07:05:00.010Z,7.44
2023-03-13T07:08:16.673Z,7.55
2023-03-13T07:11:33.183Z,7.72
2023-03-13T07:14:49.295Z,7.98
2023-03-13T07:18:08.034Z,8.26
2023-03-13T07:21:25.577Z,8.64
2023-03-13T07:24:43.060Z,8.86
2023-03-13T07:28:02.753Z,8.93
2023-03-13T07:31:24.792Z,8.97
2023-03-13T07:37:58.309Z,9.01
2023-03-13T07:41:17.725Z,9.30
2023-03-13T07:44:35.339Z,9.46
2023-03-13T07:47:52.959Z,9.80
2023-03-13T07:51:11.902Z,10.16
2023-03-13T07:54:30.108Z,10.20
2023-03-13T07:57:47.949Z,10.63
2023-03-13T08:01:04.962Z,10.54
2023-03-13T08:04:23.996Z,10.94
2023-03-13T08:07:40.511Z,10.96
2023-03-13T08:10:58.103Z,10.89
2023-03-13T08:14:14.577Z,11.11
2023-03-13T08:17:31.431Z,11.37
2023-03-13T08:20:48.413Z,11.31
2023-03-13T08:24:08.033Z,11.37
2023-03-13T08:27:24.774Z,11.41
2023-03-13T08:30:42.962Z,11.72
2023-03-13T08:34:01.170Z,11.89
2023-03-13T08:37:22.959Z,12.01
2023-03-13T08:40:39.603Z,11.99
2023-03-13T08:43:58.582Z,11.90
2023-03-13T08:47:19.017Z,11.93
2023-03-13T08:50:39.224Z,12.08
2023-03-13T08:53:56.889Z,11.93
2023-03-13T08:57:13.769Z,12.05
2023-03-13T09:00:30.942Z,12.05
2023-03-13T09:07:06.340Z,12.34
2023-03-13T09:10:24.703Z,12.43
2023-03-13T09:13:44.369Z,12.82
2023-03-13T09:17:00.978Z,12.90
2023-03-13T09:20:20.626Z,12.74
2023-03-13T09:23:37.495Z,13.09
2023-03-13T09:27:01.056Z,13.23
2023-03-13T09:30:14.076Z,13.34
2023-03-13T09:33:31.984Z,13.62
2023-03-13T09:36:49.308Z,13.70
2023-03-13T09:40:08.780Z,13.81
2023-03-13T09:43:34.145Z,13.95
2023-03-13T09:46:58.181Z,13.88
2023-03-13T09:50:19.388Z,13.74
2023-03-13T09:53:42.295Z,13.95
2023-03-13T09:57:03.302Z,13.97
2023-03-13T10:00:27.846Z,13.96
2023-03-13T10:03:48.914Z,14.24
2023-03-13T10:07:05.999Z,14.32
2023-03-13T10:10:27.313Z,14.27
2023-03-13T10:13:48.447Z,14.50
2023-03-13T10:17:09.929Z,14.77
2023-03-13T10:20:33.190Z,14.90
2023-03-13T10:23:54.610Z,15.02
2023-03-13T10:27:13.458Z,15.25
2023-03-13T10:30:36.192Z,15.20
2023-03-13T10:37:10.393Z,15.12
2023-03-13T10:40:33.033Z,15.10
2023-03-13T10:43:59.359Z,15.27
2023-03-13T10:47:18.941Z,15.61
2023-03-13T10:50:40.577Z,15.72
2023-03-13T10:53:57.195Z,15.69
2023-03-13T10:57:34.834Z,15.82
2023-03-13T11:00:51.372Z,15.76
2023-03-13T11:04:11.769Z,15.81
2023-03-13T11:07:35.933Z,15.55
2023-03-13T11:11:06.254Z,15.90
2023-03-13T11:14:27.716Z,15.87
2023-03-13T11:18:05.756Z,15.59
2023-03-13T11:21:29.555Z,15.67
2023-03-13T11:24:50.585Z,15.77
2023-03-13T11:28:23.157Z,15.78
2023-03-13T11:31:43.628Z,15.74
2023-03-13T11:35:04.198Z,15.52
2023-03-13T11:38:25.675Z,15.56
2023-03-13T11:41:59.003Z,15.19
2023-03-13T11:45:22.897Z,14.85
2023-03-13T11:49:26.337Z,14.78
2023-03-13T11:53:11.504Z,14.39
2023-03-13T11:56:32.385Z,14.45
2023-03-13T11:59:54.710Z,14.41
2023-03-13T12:03:18.006Z,14.33
2023-03-13T12:06:40.415Z,14.42
2023-03-13T12:10:03.431Z,14.34
2023-03-13T12:13:25.174Z,14.27
2023-03-13T12:16:49.300Z,14.26
2023-03-13T12:20:12.272Z,14.27
2023-03-13T12:23:32.383Z,14.28
2023-03-13T12:26:53.322Z,14.21
2023-03-13T12:30:17.495Z,14.28
2023-03-13T12:33:43.579Z,14.21
2023-03-13T12:37:07.692Z,14.17
2023-03-13T12:40:29.515Z,14.19
2023-03-13T12:44:04.227Z,14.20
2023-03-13T12:47:15.632Z,14.27
2023-03-13T12:50:43.518Z,14.30
2023-03-13T12:54:26.688Z,14.24
2023-03-13T12:58:16.919Z,14.36
2023-03-13T13:01:42.050Z,14.32
2023-03-13T13:05:01.611Z,14.36
2023-03-13T13:08:32.173Z,14.38
2023-03-13T13:12:06.316Z,14.44
2023-03-13T13:15:29.509Z,14.47
2023-03-13T13:18:47.278Z,14.48
2023-03-13T13:22:53.760Z,14.45
2023-03-13T13:26:56.248Z,14.41
2023-03-13T13:30:37.690Z,14.40
2023-03-13T13:33:53.815Z,14.36
2023-03-13T13:37:26.199Z,14.25
2023-03-13T13:40:42.890Z,14.20
2023-03-13T13:44:17.987Z,14.19
2023-03-13T13:47:37.719Z,14.13
2023-03-13T13:51:33.240Z,14.08
2023-03-13T13:55:05.979Z,14.04
2023-03-13T13:58:29.543Z,13.99
2023-03-13T14:01:48.805Z,13.96
2023-03-13T14:08:30.667Z,13.70
2023-03-13T14:11:48.118Z,13.60
2023-03-13T14:15:20.792Z,13.46
2023-03-13T14:18:38.709Z,13.30
2023-03-13T14:21:55.117Z,13.22
2023-03-13T14:25:12.979Z,13.17
2023-03-13T14:28:34.314Z,13.04
2023-03-13T14:31:57.627Z,12.98
2023-03-13T14:35:19.992Z,12.97
2023-03-13T14:38:38.868Z,12.89
2023-03-13T14:41:58.292Z,12.76
2023-03-13T14:45:26.111Z,12.78
2023-03-13T14:48:55.788Z,12.69
2023-03-13T14:52:19.587Z,12.67
2023-03-13T14:55:42.722Z,12.52
2023-03-13T14:58:59.436Z,12.59
2023-03-13T15:02:28.345Z,12.42
2023-03-13T15:05:46.186Z,12.37
2023-03-13T15:09:27.210Z,12.30
2023-03-13T15:12:50.832Z,12.35
2023-03-13T15:16:08.593Z,12.30
2023-03-13T15:22:44.899Z,12.29
2023-03-13T15:26:01.511Z,12.26
2023-03-13T15:29:19.430Z,12.26
2023-03-13T15:32:39.808Z,12.24
2023-03-13T15:35:56.997Z,12.19
2023-03-13T15:39:16.791Z,12.18
2023-03-13T15:42:34.095Z,12.11
2023-03-13T15:45:53.176Z,12.10
2023-03-13T15:55:38.204Z,12.00
2023-03-13T15:58:56.345Z,11.95
2023-03-13T16:02:19.788Z,11.98
2023-03-13T16:05:37.506Z,11.91
2023-03-13T16:08:54.194Z,11.90
2023-03-13T16:12:11.882Z,11.88
2023-03-13T16:15:28.611Z,11.90
2023-03-13T16:18:44.846Z,11.89
2023-03-13T16:22:01.518Z,11.86
2023-03-13T16:25:19.859Z,11.85
2023-03-13T16:28:36.352Z,11.86
2023-03-13T16:31:53.060Z,11.84
2023-03-13T16:35:09.637Z,11.71
2023-03-13T16:38:28.184Z,11.68
2023-03-13T16:41:45.403Z,11.60
2023-03-13T16:45:01.430Z,11.55
2023-03-13T16:48:22.543Z,11.46
2023-03-13T16:51:39.005Z,11.47
2023-03-13T16:54:56.058Z,11.47
2023-03-13T16:58:17.189Z,11.46
2023-03-13T17:01:35.856Z,11.43
2023-03-13T17:04:53.897Z,11.29
2023-03-13T17:08:11.250Z,11.20
2023-03-13T17:11:36.420Z,11.19
2023-03-13T17:14:54.085Z,11.16
2023-03-13T17:18:12.137Z,11.12
2023-03-13T17:21:33.072Z,11.13
2023-03-13T17:24:50.869Z,11.07
2023-03-13T17:28:07.666Z,10.97
2023-03-13T17:31:26.658Z,10.89
2023-03-13T17:34:43.573Z,10.81
2023-03-13T17:38:02.423Z,10.76
2023-03-13T17:41:26.305Z,10.73
2023-03-13T17:44:46.501Z,10.65
2023-03-13T17:48:22.072Z,10.61
2023-03-13T17:51:42.334Z,10.51
2023-03-13T17:55:00.246Z,10.48
2023-03-13T17:58:19.029Z,10.53
2023-03-13T18:01:39.307Z,10.59
2023-03-13T18:04:58.521Z,10.61
2023-03-13T18:08:22.964Z,10.59
2023-03-13T18:11:40.246Z,10.60
2023-03-13T18:14:59.119Z,10.63
2023-03-13T18:18:16.102Z,10.62
2023-03-13T18:21:34.370Z,10.68
2023-03-13T18:24:52.673Z,10.69
2023-03-13T18:28:11.297Z,10.76
2023-03-13T18:31:29.711Z,10.79
2023-03-13T18:34:47.583Z,10.83
2023-03-13T18:38:09.201Z,10.86
2023-03-13T18:41:27.639Z,10.91
2023-03-13T18:44:44.691Z,10.99
2023-03-13T18:48:04.771Z,11.01
2023-03-13T18:51:25.532Z,11.07
2023-03-13T18:54:45.187Z,11.04
2023-03-13T18:58:02.498Z,11.06
2023-03-13T19:01:23.950Z,11.03
2023-03-13T19:04:42.474Z,11.08
2023-03-13T19:07:59.445Z,11.09
2023-03-13T19:11:20.806Z,11.12
2023-03-13T19:14:39.313Z,11.11
2023-03-13T19:17:56.995Z,11.07
2023-03-13T19:21:23.311Z,11.03
2023-03-13T19:24:39.987Z,10.92
2023-03-13T19:27:59.514Z,10.74
2023-03-13T19:31:18.558Z,10.59
2023-03-13T19:39:18.115Z,10.18
2023-03-13T19:42:36.322Z,9.90
2023-03-13T19:45:56.714Z,9.85
2023-03-13T19:49:14.970Z,9.74
2023-03-13T19:56:01.392Z,9.53
2023-03-13T19:59:22.191Z,9.33
2023-03-13T20:02:41.796Z,9.30
2023-03-13T20:09:22.072Z,9.12
2023-03-13T20:12:40.122Z,9.03
2023-03-13T20:16:00.475Z,8.96
2023-03-13T20:19:18.694Z,8.81
2023-03-13T20:22:35.985Z,8.84
2023-03-13T20:25:54.656Z,8.77
2023-03-13T20:29:12.075Z,8.67
2023-03-13T20:32:30.265Z,8.47
2023-03-13T20:39:06.387Z,8.58
2023-03-13T20:42:24.682Z,8.73
2023-03-13T20:45:41.274Z,8.76
2023-03-13T20:48:59.073Z,8.91
2023-03-13T20:52:16.383Z,9.05
2023-03-13T20:55:33.505Z,9.18
2023-03-13T20:58:50.113Z,9.27
2023-03-13T21:02:07.283Z,9.47
2023-03-13T21:05:28.420Z,9.46
2023-03-13T21:08:45.473Z,9.53
2023-03-13T21:12:02.038Z,9.67
2023-03-13T21:15:20.476Z,9.67
2023-03-13T21:18:36.987Z,9.70
2023-03-13T21:21:53.584Z,9.69
2023-03-13T21:25:13.226Z,9.84
2023-03-13T21:28:29.612Z,9.92
2023-03-13T21:31:46.115Z,9.86
2023-03-13T21:35:02.766Z,10.00
2023-03-13T21:38:19.099Z,10.29
2023-03-13T21:41:35.979Z,10.47
2023-03-13T21:44:54.691Z,10.66
2023-03-13T21:48:11.407Z,10.82
2023-03-13T21:51:27.555Z,10.96
2023-03-13T21:54:44.034Z,11.07
2023-03-13T21:58:00.324Z,11.25
2023-03-13T22:01:17.698Z,11.29
2023-03-13T22:04:33.857Z,11.35
2023-03-13T22:07:51.364Z,11.42
2023-03-13T22:11:08.316Z,11.47
2023-03-13T22:14:26.525Z,11.52
2023-03-13T22:17:42.564Z,11.53
2023-03-13T22:24:16.483Z,11.52
2023-03-13T22:27:32.954Z,11.56
2023-03-13T22:30:50.940Z,11.55
2023-03-13T22:34:07.100Z,11.56
2023-03-13T22:40:40.654Z,11.68
2023-03-13T22:43:56.729Z,11.65
2023-03-13T22:47:12.912Z,11.62
2023-03-13T22:53:48.409Z,11.58
2023-03-13T22:57:04.760Z,11.55
2023-03-13T23:00:23.740Z,11.51
2023-03-13T23:03:39.877Z,11.48
2023-03-13T23:06:56.134Z,11.50
2023-03-13T23:10:14.284Z,11.45
2023-03-13T23:13:30.311Z,11.36
2023-03-13T23:16:46.935Z,11.27
2023-03-13T23:20:08.158Z,11.44
2023-03-13T23:26:41.053Z,11.86
2023-03-13T23:29:57.837Z,11.96
2023-03-13T23:33:14.184Z,11.98
2023-03-13T23:39:46.980Z,12.02
2023-03-13T23:43:03.025Z,12.11
2023-03-13T23:46:27.022Z,12.17
2023-03-13T23:49:43.213Z,12.23
2023-03-13T23:52:59.463Z,12.30
2023-03-13T23:56:16.892Z,12.29
2023-03-13T23:59:33.028Z,12.25
